• Join FlightAware (Why Join?)
  • Login
  • US Flag 
05:54AM EST


 

Airport Tracker/Info


-or-


 

Live Flight TrackerFlight Track Log ✈ CTL62 ✈ 26-Apr-2013 ✈ KOSU - KPWK

Flight Track Log - Related Links

Times and Time Zones

All times are in EDT time to prevent confusion due to time zone crossing. See the CTL62 flight status page for this flight to view local times or setup timezone preferences in your user account.

Time Position Orientation Groundspeed Altitude Reporting Facility
EDT Latitude Longitude Course Direction KTS MPH feet Rate Location/Type
10:59PM 40.0781 -83.0606 28° Northeast 107 123 1,200  Level Indianapolis Center
11:00PM 40.0981 -83.0464 28° Northeast 103 119 2,500 1,260 Climbing Indianapolis Center
11:01PM 40.1269 -83.0525 351° North 114 131 3,500 1,140 Climbing Indianapolis Center
11:02PM 40.1372 -83.0508 North 108 124 3,900 1,080 Climbing Indianapolis Center
11:03PM 40.1700 -83.0569 352° North 114 131 5,000 1,020 Climbing Indianapolis Center
11:04PM 40.1911 -83.0900 310° West 120 138 6,000 960 Climbing Indianapolis Center
11:05PM 40.2075 -83.1275 300° West 121 139 7,000 960 Climbing Indianapolis Center
11:05PM 40.2219 -83.1619 299° West 116 133 7,900 480 Climbing Indianapolis Center
11:07PM 40.2439 -83.2053 304° West 127 146 8,000  Climbing Indianapolis Center
11:08PM 40.2664 -83.2575 299° West 154 177 8,000  Level Indianapolis Center
11:09PM 40.2903 -83.3131 299° West 170 196 8,000 -60 Level Indianapolis Center
11:10PM 40.3153 -83.3672 301° West 172 198 7,900  Descending Indianapolis Center
11:11PM 40.3389 -83.4233 299° West 173 199 8,000  Climbing Indianapolis Center
11:12PM 40.3642 -83.4775 301° West 174 200 8,000  Level Indianapolis Center
11:13PM 40.3883 -83.5325 300° West 173 199 8,000 -60 Level Indianapolis Center
11:14PM 40.4156 -83.5856 304° West 174 200 7,900  Descending Indianapolis Center
11:15PM 40.4394 -83.6406 300° West 172 198 8,000  Climbing Indianapolis Center
11:16PM 40.4633 -83.6956 300° West 172 198 8,000  Level Indianapolis Center
11:17PM 40.4881 -83.7508 300° West 174 200 8,000  Level Indianapolis Center
11:18PM 40.5167 -83.8136 301° West 171 197 8,000  Level Indianapolis Center
11:19PM 40.5439 -83.8689 303° West 177 204 8,000 -60 Level Indianapolis Center
11:20PM 40.5683 -83.9242 300° West 176 203 7,900  Descending Indianapolis Center
11:21PM 40.5914 -83.9800 299° West 174 200 8,000  Climbing Indianapolis Center
11:22PM 40.6142 -84.0339 299° West 170 196 8,000 -60 Level Indianapolis Center
11:23PM 40.6381 -84.0894 300° West 171 197 7,900  Descending Indianapolis Center
11:24PM 40.6608 -84.1456 298° West 172 198 8,000  Climbing Indianapolis Center
11:25PM 40.6853 -84.2008 300° West 173 199 8,000 60 Level Indianapolis Center
11:26PM 40.7086 -84.2553 299° West 172 198 8,200  Climbing Indianapolis Center
11:27PM 40.7294 -84.3125 296° West 171 197 8,100 -60 Descending Indianapolis Center
11:28PM 40.7514 -84.3694 297° West 174 200 8,100 -60 Level Indianapolis Center
11:29PM 40.7689 -84.4200 295° West 173 199 8,000  Descending Chicago Center
11:30PM 40.7917 -84.4736 299° West 170 196 8,100  Climbing Chicago Center
11:31PM 40.8144 -84.5314 298° West 174 200 8,100  Level Chicago Center
11:32PM 40.8386 -84.5850 301° West 171 197 8,200  Climbing Chicago Center
11:33PM 40.8608 -84.6408 298° West 173 199 8,200  Level Chicago Center
11:34PM 40.8814 -84.6967 296° West 171 197 8,300  Climbing Chicago Center
11:35PM 40.9036 -84.7508 299° West 171 197 8,200 -180 Descending Chicago Center
11:36PM 40.9300 -84.8072 302° West 177 204 8,000 -120 Descending Chicago Center
11:37PM 40.9539 -84.8608 301° West 173 199 8,000 60 Level Chicago Center
11:38PM 40.9725 -84.9219 292° West 176 203 8,200  Climbing Chicago Center
11:39PM 40.9933 -84.9750 297° West 167 192 8,100 -60 Descending Chicago Center
11:40PM 41.0167 -85.0292 300° West 167 192 8,100  Level Chicago Center
11:41PM 41.0392 -85.0850 298° West 171 197 8,200 -60 Climbing Chicago Center
11:42PM 41.0611 -85.1400 298° West 169 194 8,000 -120 Descending Chicago Center
11:43PM 41.0828 -85.1961 297° West 171 197 8,000 60 Level Chicago Center
11:44PM 41.1039 -85.2511 297° West 169 194 8,200  Climbing Chicago Center
11:45PM 41.1253 -85.3075 297° West 170 196 8,000 -120 Descending Chicago Center
11:46PM 41.1522 -85.3736 298° West 170 196 8,000  Level Chicago Center
11:47PM 41.1739 -85.4281 298° West 167 192 8,100 60 Climbing Chicago Center
11:48PM 41.1950 -85.4831 297° West 167 192 8,200 -60 Climbing Chicago Center
11:49PM 41.2172 -85.5378 298° West 168 193 8,000 -60 Descending Chicago Center
11:50PM 41.2392 -85.5925 298° West 168 193 8,100  Climbing Chicago Center
11:51PM 41.2631 -85.6461 301° West 167 192 8,000 -60 Descending Chicago Center
11:52PM 41.2850 -85.7017 298° West 169 194 8,000  Level Chicago Center
11:53PM 41.3072 -85.7542 299° West 164 189 8,100  Climbing Chicago Center
11:54PM 41.3292 -85.8086 298° West 165 190 8,100  Level Chicago Center
11:55PM 41.3508 -85.8619 298° West 164 189 8,100  Level Chicago Center
11:56PM 41.3742 -85.9153 300° West 166 191 8,100  Level Chicago Center
11:57PM 41.3958 -85.9686 298° West 164 189 8,100  Level Chicago Center
11:58PM 41.4189 -86.0217 300° West 165 190 8,200  Climbing Chicago Center
11:59PM 41.4406 -86.0769 298° West 167 192 8,100 -60 Descending Chicago Center
12:00AM 41.4617 -86.1311 297° West 168 193 8,100  Level Chicago Center
12:01AM 41.4844 -86.1833 300° West 165 190 8,100 -60 Level Chicago Center
12:02AM 41.5072 -86.2381 299° West 168 193 8,000 -60 Descending Chicago Center
12:03AM 41.5292 -86.2917 299° West 167 192 8,000  Level Chicago Center
12:04AM 41.5558 -86.3556 299° West 164 189 8,100  Climbing Chicago Center
12:05AM 41.5786 -86.4094 299° West 167 192 8,000 -60 Descending Chicago Center
12:06AM 41.6003 -86.4631 298° West 165 190 8,000  Level Chicago Center
12:07AM 41.6211 -86.5169 297° West 164 189 8,000  Level Chicago Center
12:08AM 41.6431 -86.5689 299° West 161 185 8,000  Level Chicago Center
12:09AM 41.6628 -86.6239 296° West 163 188 8,000  Level Chicago Center
12:10AM 41.6839 -86.6786 297° West 164 189 8,000  Level Chicago Center
12:11AM 41.7050 -86.7314 298° West 165 190 8,000  Level Chicago Center
12:12AM 41.7267 -86.7869 298° West 167 192 8,000  Level Chicago Center
12:13AM 41.7469 -86.8414 297° West 166 191 8,000  Level Chicago Center
12:14AM 41.7669 -86.8972 296° West 166 191 8,000  Level Chicago Center
12:15AM 41.7856 -86.9525 294° West 166 191 8,000  Level Chicago Center
12:16AM 41.8083 -87.0067 299° West 167 192 8,000 -60 Level Chicago Center
12:17AM 41.8264 -87.0628 293° West 167 192 7,900 -300 Descending Chicago Center
12:18AM 41.8456 -87.1208 294° West 170 196 7,500 -600 Descending Chicago Center
12:19AM 41.8728 -87.1969 296° West 186 214 6,700 -900 Descending Chicago Center
12:20AM 41.8964 -87.2592 297° West 188 216 5,800 -900 Descending Chicago Center
12:21AM 41.9381 -87.3061 320° Northwest 195 224 4,900 -840 Descending Chicago Center
12:22AM 41.9850 -87.3461 328° Northwest 200 230 4,200 -780 Descending Chicago Center
12:23AM 42.0289 -87.3864 326° Northwest 196 226 3,400 -720 Descending Chicago Center
12:24AM 42.0500 -87.4167 313° West 189 217 3,000 -360 Descending Chicago TRACON
12:25AM 42.0667 -87.4667 294° West 160 184 2,900 -60 Descending Chicago TRACON
12:26AM 42.0667 -87.5333 270° West 151 174 2,900  Level Chicago TRACON
12:27AM 42.0833 -87.5833 294° West 145 167 3,000 60 Climbing Chicago TRACON
12:28AM 42.0833 -87.6333 270° West 146 168 3,100 -60 Climbing Chicago TRACON
12:29AM 42.0833 -87.6833 270° West 148 170 2,900 -120 Descending Chicago TRACON
12:30AM 42.0978 -87.7586 285° West 147 169 2,800 -120 Descending Chicago Center
12:32AM 42.0988 -87.8203 271° West  Level FlightAware Approximate
12:39AM 42.1000 -87.9000 278° West  Level FlightAware Approximate
12:40AM 42.1143 -87.9015 278° West  Level Estimated